sensor_id;sensor_type;location;lat;lon;timestamp;P1;durP1;ratioP1;P2;durP2;ratioP2
21183;SDS011;18176;49.502;11.754;2023-07-31T00:01:36;6.03;;;2.80;;
21183;SDS011;18176;49.502;11.754;2023-07-31T00:05:36;5.63;;;2.20;;
21183;SDS011;18176;49.502;11.754;2023-07-31T00:09:36;7.47;;;2.58;;
21183;SDS011;18176;49.502;11.754;2023-07-31T00:13:39;4.07;;;2.63;;
21183;SDS011;18176;49.502;11.754;2023-07-31T00:17:39;5.07;;;2.23;;
21183;SDS011;18176;49.502;11.754;2023-07-31T00:21:40;5.23;;;2.40;;
21183;SDS011;18176;49.502;11.754;2023-07-31T00:25:41;8.05;;;2.42;;
21183;SDS011;18176;49.502;11.754;2023-07-31T00:29:44;4.20;;;2.00;;
21183;SDS011;18176;49.502;11.754;2023-07-31T00:33:44;3.93;;;1.83;;
21183;SDS011;18176;49.502;11.754;2023-07-31T00:37:45;5.07;;;1.90;;
21183;SDS011;18176;49.502;11.754;2023-07-31T00:41:45;3.60;;;1.80;;
21183;SDS011;18176;49.502;11.754;2023-07-31T00:45:49;8.47;;;2.40;;
21183;SDS011;18176;49.502;11.754;2023-07-31T00:49:49;5.70;;;2.13;;
21183;SDS011;18176;49.502;11.754;2023-07-31T00:53:50;5.40;;;2.10;;
21183;SDS011;18176;49.502;11.754;2023-07-31T00:57:52;6.37;;;2.10;;
21183;SDS011;18176;49.502;11.754;2023-07-31T01:01:56;6.40;;;2.40;;
21183;SDS011;18176;49.502;11.754;2023-07-31T01:06:06;3.33;;;1.80;;
21183;SDS011;18176;49.502;11.754;2023-07-31T01:10:18;5.17;;;1.90;;
21183;SDS011;18176;49.502;11.754;2023-07-31T01:14:24;5.37;;;2.03;;
21183;SDS011;18176;49.502;11.754;2023-07-31T01:18:27;7.50;;;2.20;;
21183;SDS011;18176;49.502;11.754;2023-07-31T01:22:34;6.07;;;2.10;;
21183;SDS011;18176;49.502;11.754;2023-07-31T01:27:10;7.53;;;2.37;;
21183;SDS011;18176;49.502;11.754;2023-07-31T01:31:18;6.07;;;2.27;;
21183;SDS011;18176;49.502;11.754;2023-07-31T01:35:24;4.90;;;2.10;;
21183;SDS011;18176;49.502;11.754;2023-07-31T01:39:25;5.82;;;2.22;;
21183;SDS011;18176;49.502;11.754;2023-07-31T01:43:28;6.03;;;2.30;;
21183;SDS011;18176;49.502;11.754;2023-07-31T01:47:28;10.15;;;2.35;;
21183;SDS011;18176;49.502;11.754;2023-07-31T01:51:29;6.68;;;2.08;;
21183;SDS011;18176;49.502;11.754;2023-07-31T01:55:30;6.25;;;2.20;;
21183;SDS011;18176;49.502;11.754;2023-07-31T01:59:33;5.72;;;2.03;;
21183;SDS011;18176;49.502;11.754;2023-07-31T02:03:34;4.43;;;2.10;;
21183;SDS011;18176;49.502;11.754;2023-07-31T02:07:34;5.87;;;2.13;;
21183;SDS011;18176;49.502;11.754;2023-07-31T02:11:35;4.63;;;2.10;;
21183;SDS011;18176;49.502;11.754;2023-07-31T02:15:38;3.50;;;2.05;;
21183;SDS011;18176;49.502;11.754;2023-07-31T02:19:38;6.97;;;2.20;;
21183;SDS011;18176;49.502;11.754;2023-07-31T02:23:39;6.88;;;2.17;;
21183;SDS011;18176;49.502;11.754;2023-07-31T02:27:40;4.20;;;2.00;;
21183;SDS011;18176;49.502;11.754;2023-07-31T02:31:43;4.78;;;1.70;;
21183;SDS011;18176;49.502;11.754;2023-07-31T02:35:43;7.43;;;2.07;;
21183;SDS011;18176;49.502;11.754;2023-07-31T02:39:44;6.15;;;2.25;;
21183;SDS011;18176;49.502;11.754;2023-07-31T02:43:44;5.20;;;2.00;;
21183;SDS011;18176;49.502;11.754;2023-07-31T02:47:47;4.35;;;2.30;;
21183;SDS011;18176;49.502;11.754;2023-07-31T02:51:50;6.35;;;2.00;;
21183;SDS011;18176;49.502;11.754;2023-07-31T02:55:50;5.28;;;2.20;;
21183;SDS011;18176;49.502;11.754;2023-07-31T02:59:50;6.03;;;2.10;;
21183;SDS011;18176;49.502;11.754;2023-07-31T03:03:53;5.22;;;2.10;;
21183;SDS011;18176;49.502;11.754;2023-07-31T03:07:54;5.72;;;2.10;;
21183;SDS011;18176;49.502;11.754;2023-07-31T03:11:55;7.00;;;2.38;;
21183;SDS011;18176;49.502;11.754;2023-07-31T03:15:55;9.85;;;2.30;;
21183;SDS011;18176;49.502;11.754;2023-07-31T03:19:58;4.80;;;2.08;;
21183;SDS011;18176;49.502;11.754;2023-07-31T03:23:58;6.90;;;2.37;;
21183;SDS011;18176;49.502;11.754;2023-07-31T03:27:59;6.60;;;1.87;;
21183;SDS011;18176;49.502;11.754;2023-07-31T03:32:00;5.38;;;2.08;;
21183;SDS011;18176;49.502;11.754;2023-07-31T03:36:03;7.22;;;2.58;;
21183;SDS011;18176;49.502;11.754;2023-07-31T03:40:06;6.95;;;2.25;;
21183;SDS011;18176;49.502;11.754;2023-07-31T03:44:07;7.03;;;2.30;;
21183;SDS011;18176;49.502;11.754;2023-07-31T03:48:08;3.85;;;2.00;;
21183;SDS011;18176;49.502;11.754;2023-07-31T03:52:11;4.63;;;2.10;;
21183;SDS011;18176;49.502;11.754;2023-07-31T03:56:11;6.32;;;2.25;;
21183;SDS011;18176;49.502;11.754;2023-07-31T04:00:12;6.05;;;2.17;;
21183;SDS011;18176;49.502;11.754;2023-07-31T04:04:13;4.63;;;1.90;;
21183;SDS011;18176;49.502;11.754;2023-07-31T04:08:16;4.53;;;2.38;;
21183;SDS011;18176;49.502;11.754;2023-07-31T04:12:16;7.20;;;2.90;;
21183;SDS011;18176;49.502;11.754;2023-07-31T04:16:16;7.65;;;2.42;;
21183;SDS011;18176;49.502;11.754;2023-07-31T04:20:16;4.55;;;2.10;;
21183;SDS011;18176;49.502;11.754;2023-07-31T04:24:19;4.32;;;1.98;;
21183;SDS011;18176;49.502;11.754;2023-07-31T04:28:21;7.22;;;2.38;;
21183;SDS011;18176;49.502;11.754;2023-07-31T04:32:22;4.78;;;2.03;;
21183;SDS011;18176;49.502;11.754;2023-07-31T04:36:23;7.20;;;2.13;;
21183;SDS011;18176;49.502;11.754;2023-07-31T04:40:26;3.85;;;2.10;;
21183;SDS011;18176;49.502;11.754;2023-07-31T04:44:26;5.28;;;2.10;;
21183;SDS011;18176;49.502;11.754;2023-07-31T04:48:27;6.32;;;2.13;;
21183;SDS011;18176;49.502;11.754;2023-07-31T04:52:27;5.10;;;2.10;;
21183;SDS011;18176;49.502;11.754;2023-07-31T04:56:30;3.75;;;1.83;;
21183;SDS011;18176;49.502;11.754;2023-07-31T05:00:30;5.97;;;1.92;;
21183;SDS011;18176;49.502;11.754;2023-07-31T05:04:31;3.92;;;1.73;;
21183;SDS011;18176;49.502;11.754;2023-07-31T05:08:31;7.38;;;2.08;;
21183;SDS011;18176;49.502;11.754;2023-07-31T05:12:34;12.32;;;2.17;;
21183;SDS011;18176;49.502;11.754;2023-07-31T05:16:34;4.75;;;1.80;;
21183;SDS011;18176;49.502;11.754;2023-07-31T05:20:35;7.00;;;2.05;;
21183;SDS011;18176;49.502;11.754;2023-07-31T05:24:36;6.07;;;2.20;;
21183;SDS011;18176;49.502;11.754;2023-07-31T05:28:39;7.63;;;1.90;;
21183;SDS011;18176;49.502;11.754;2023-07-31T05:32:39;4.75;;;1.80;;
21183;SDS011;18176;49.502;11.754;2023-07-31T05:36:39;8.05;;;1.92;;
21183;SDS011;18176;49.502;11.754;2023-07-31T05:40:40;3.33;;;1.83;;
21183;SDS011;18176;49.502;11.754;2023-07-31T05:44:44;9.57;;;2.30;;
21183;SDS011;18176;49.502;11.754;2023-07-31T05:48:45;5.65;;;1.92;;
21183;SDS011;18176;49.502;11.754;2023-07-31T05:52:45;3.90;;;1.95;;
21183;SDS011;18176;49.502;11.754;2023-07-31T05:56:45;6.53;;;2.20;;
21183;SDS011;18176;49.502;11.754;2023-07-31T06:00:48;5.60;;;1.90;;
21183;SDS011;18176;49.502;11.754;2023-07-31T06:04:48;5.55;;;1.80;;
21183;SDS011;18176;49.502;11.754;2023-07-31T06:08:49;4.75;;;1.80;;
21183;SDS011;18176;49.502;11.754;2023-07-31T06:12:49;7.18;;;1.98;;
21183;SDS011;18176;49.502;11.754;2023-07-31T06:16:53;4.40;;;1.88;;
21183;SDS011;18176;49.502;11.754;2023-07-31T06:20:53;5.40;;;2.08;;
21183;SDS011;18176;49.502;11.754;2023-07-31T06:24:53;3.58;;;1.70;;
21183;SDS011;18176;49.502;11.754;2023-07-31T06:28:54;5.43;;;2.20;;
21183;SDS011;18176;49.502;11.754;2023-07-31T06:32:57;4.82;;;1.80;;
21183;SDS011;18176;49.502;11.754;2023-07-31T06:36:58;5.22;;;2.10;;
21183;SDS011;18176;49.502;11.754;2023-07-31T06:40:58;4.50;;;1.98;;
21183;SDS011;18176;49.502;11.754;2023-07-31T06:44:58;6.13;;;2.20;;
21183;SDS011;18176;49.502;11.754;2023-07-31T06:49:01;4.22;;;1.90;;
21183;SDS011;18176;49.502;11.754;2023-07-31T06:53:02;5.70;;;1.95;;
21183;SDS011;18176;49.502;11.754;2023-07-31T06:57:09;7.57;;;2.15;;
21183;SDS011;18176;49.502;11.754;2023-07-31T07:01:10;5.05;;;1.80;;
21183;SDS011;18176;49.502;11.754;2023-07-31T07:05:13;5.07;;;1.90;;
21183;SDS011;18176;49.502;11.754;2023-07-31T07:09:16;2.80;;;1.98;;
21183;SDS011;18176;49.502;11.754;2023-07-31T07:13:16;5.45;;;2.03;;
21183;SDS011;18176;49.502;11.754;2023-07-31T07:17:17;4.53;;;2.30;;
21183;SDS011;18176;49.502;11.754;2023-07-31T07:21:24;5.57;;;2.40;;
21183;SDS011;18176;49.502;11.754;2023-07-31T07:25:25;7.05;;;2.40;;
21183;SDS011;18176;49.502;11.754;2023-07-31T07:29:25;6.20;;;2.10;;
21183;SDS011;18176;49.502;11.754;2023-07-31T07:33:25;7.22;;;2.30;;
21183;SDS011;18176;49.502;11.754;2023-07-31T07:37:29;5.78;;;2.10;;
21183;SDS011;18176;49.502;11.754;2023-07-31T07:41:29;5.30;;;2.30;;
21183;SDS011;18176;49.502;11.754;2023-07-31T07:45:29;7.22;;;2.13;;
21183;SDS011;18176;49.502;11.754;2023-07-31T07:49:30;6.40;;;2.42;;
21183;SDS011;18176;49.502;11.754;2023-07-31T07:53:33;5.57;;;2.30;;
21183;SDS011;18176;49.502;11.754;2023-07-31T07:57:33;5.45;;;2.17;;
21183;SDS011;18176;49.502;11.754;2023-07-31T08:01:34;7.43;;;2.10;;
21183;SDS011;18176;49.502;11.754;2023-07-31T08:05:34;5.45;;;2.45;;
21183;SDS011;18176;49.502;11.754;2023-07-31T08:09:42;5.72;;;2.50;;
21183;SDS011;18176;49.502;11.754;2023-07-31T08:13:42;6.05;;;2.40;;
21183;SDS011;18176;49.502;11.754;2023-07-31T08:17:42;5.20;;;2.90;;
21183;SDS011;18176;49.502;11.754;2023-07-31T08:21:43;4.97;;;2.38;;
21183;SDS011;18176;49.502;11.754;2023-07-31T08:25:46;6.43;;;2.30;;
21183;SDS011;18176;49.502;11.754;2023-07-31T08:29:47;5.38;;;2.40;;
21183;SDS011;18176;49.502;11.754;2023-07-31T08:33:48;4.70;;;2.22;;
21183;SDS011;18176;49.502;11.754;2023-07-31T08:37:49;7.38;;;2.40;;
21183;SDS011;18176;49.502;11.754;2023-07-31T08:41:54;6.00;;;2.58;;
21183;SDS011;18176;49.502;11.754;2023-07-31T08:45:58;6.15;;;2.35;;
21183;SDS011;18176;49.502;11.754;2023-07-31T08:49:59;7.18;;;2.50;;
21183;SDS011;18176;49.502;11.754;2023-07-31T08:54:01;6.53;;;2.88;;
21183;SDS011;18176;49.502;11.754;2023-07-31T08:58:06;8.65;;;2.28;;
21183;SDS011;18176;49.502;11.754;2023-07-31T09:02:07;6.00;;;2.55;;
21183;SDS011;18176;49.502;11.754;2023-07-31T09:06:08;5.10;;;2.53;;
21183;SDS011;18176;49.502;11.754;2023-07-31T09:10:09;7.78;;;2.50;;
21183;SDS011;18176;49.502;11.754;2023-07-31T09:14:12;5.80;;;2.45;;
21183;SDS011;18176;49.502;11.754;2023-07-31T09:18:15;8.48;;;2.92;;
21183;SDS011;18176;49.502;11.754;2023-07-31T09:22:20;3.80;;;2.42;;
21183;SDS011;18176;49.502;11.754;2023-07-31T09:26:34;6.80;;;2.63;;
21183;SDS011;18176;49.502;11.754;2023-07-31T09:30:46;4.78;;;2.35;;
21183;SDS011;18176;49.502;11.754;2023-07-31T09:34:49;5.53;;;2.40;;
21183;SDS011;18176;49.502;11.754;2023-07-31T09:38:49;5.20;;;2.42;;
21183;SDS011;18176;49.502;11.754;2023-07-31T09:42:50;3.45;;;2.20;;
21183;SDS011;18176;49.502;11.754;2023-07-31T09:46:53;7.75;;;2.50;;
21183;SDS011;18176;49.502;11.754;2023-07-31T09:50:54;4.38;;;2.40;;
21183;SDS011;18176;49.502;11.754;2023-07-31T09:54:54;6.65;;;2.55;;
21183;SDS011;18176;49.502;11.754;2023-07-31T09:58:55;6.35;;;2.38;;
21183;SDS011;18176;49.502;11.754;2023-07-31T10:02:59;5.05;;;2.30;;
21183;SDS011;18176;49.502;11.754;2023-07-31T10:07:05;6.93;;;2.53;;
21183;SDS011;18176;49.502;11.754;2023-07-31T10:11:09;5.75;;;2.60;;
21183;SDS011;18176;49.502;11.754;2023-07-31T10:15:10;2.42;;;1.90;;
21183;SDS011;18176;49.502;11.754;2023-07-31T10:19:14;5.20;;;2.55;;
21183;SDS011;18176;49.502;11.754;2023-07-31T10:23:14;5.68;;;2.60;;
21183;SDS011;18176;49.502;11.754;2023-07-31T10:27:15;7.40;;;3.10;;
21183;SDS011;18176;49.502;11.754;2023-07-31T10:31:18;3.85;;;2.30;;
21183;SDS011;18176;49.502;11.754;2023-07-31T10:35:22;7.20;;;2.67;;
21183;SDS011;18176;49.502;11.754;2023-07-31T10:39:33;6.15;;;2.60;;
21183;SDS011;18176;49.502;11.754;2023-07-31T10:43:41;5.38;;;2.50;;
21183;SDS011;18176;49.502;11.754;2023-07-31T10:47:42;3.90;;;2.30;;
21183;SDS011;18176;49.502;11.754;2023-07-31T10:51:47;7.03;;;2.40;;
21183;SDS011;18176;49.502;11.754;2023-07-31T10:55:48;2.72;;;1.88;;
21183;SDS011;18176;49.502;11.754;2023-07-31T10:59:51;5.38;;;2.60;;
21183;SDS011;18176;49.502;11.754;2023-07-31T11:04:23;6.45;;;2.50;;
21183;SDS011;18176;49.502;11.754;2023-07-31T11:08:27;3.65;;;2.10;;
21183;SDS011;18176;49.502;11.754;2023-07-31T11:12:29;4.22;;;1.75;;
21183;SDS011;18176;49.502;11.754;2023-07-31T11:16:30;4.25;;;2.13;;
21183;SDS011;18176;49.502;11.754;2023-07-31T11:20:34;3.88;;;1.98;;
21183;SDS011;18176;49.502;11.754;2023-07-31T11:24:39;2.85;;;1.90;;
21183;SDS011;18176;49.502;11.754;2023-07-31T11:28:40;6.10;;;2.15;;
21183;SDS011;18176;49.502;11.754;2023-07-31T11:32:40;3.00;;;1.98;;
21183;SDS011;18176;49.502;11.754;2023-07-31T11:36:42;4.80;;;2.28;;
21183;SDS011;18176;49.502;11.754;2023-07-31T11:40:59;3.13;;;2.00;;
21183;SDS011;18176;49.502;11.754;2023-07-31T11:45:08;3.33;;;2.22;;
21183;SDS011;18176;49.502;11.754;2023-07-31T11:49:09;4.35;;;2.38;;
21183;SDS011;18176;49.502;11.754;2023-07-31T11:53:10;4.38;;;2.28;;
21183;SDS011;18176;49.502;11.754;2023-07-31T11:57:13;4.97;;;2.30;;
21183;SDS011;18176;49.502;11.754;2023-07-31T12:01:14;3.97;;;2.38;;
21183;SDS011;18176;49.502;11.754;2023-07-31T12:05:18;5.60;;;2.50;;
21183;SDS011;18176;49.502;11.754;2023-07-31T12:09:19;5.57;;;2.60;;
21183;SDS011;18176;49.502;11.754;2023-07-31T12:13:23;4.07;;;2.65;;
21183;SDS011;18176;49.502;11.754;2023-07-31T12:17:26;3.78;;;2.55;;
21183;SDS011;18176;49.502;11.754;2023-07-31T12:21:27;4.43;;;2.65;;
21183;SDS011;18176;49.502;11.754;2023-07-31T12:25:31;3.67;;;2.35;;
21183;SDS011;18176;49.502;11.754;2023-07-31T12:29:39;3.63;;;2.42;;
21183;SDS011;18176;49.502;11.754;2023-07-31T12:33:43;4.70;;;2.63;;
21183;SDS011;18176;49.502;11.754;2023-07-31T12:37:49;4.68;;;2.67;;
21183;SDS011;18176;49.502;11.754;2023-07-31T12:41:49;5.65;;;3.10;;
21183;SDS011;18176;49.502;11.754;2023-07-31T12:45:53;5.35;;;2.80;;
21183;SDS011;18176;49.502;11.754;2023-07-31T12:49:54;4.30;;;2.88;;
21183;SDS011;18176;49.502;11.754;2023-07-31T12:53:55;4.75;;;3.13;;
21183;SDS011;18176;49.502;11.754;2023-07-31T12:57:55;8.82;;;3.28;;
21183;SDS011;18176;49.502;11.754;2023-07-31T13:01:58;3.50;;;2.70;;
21183;SDS011;18176;49.502;11.754;2023-07-31T13:05:59;6.10;;;2.92;;
21183;SDS011;18176;49.502;11.754;2023-07-31T13:09:59;5.35;;;3.20;;
21183;SDS011;18176;49.502;11.754;2023-07-31T13:14:00;4.82;;;2.88;;
21183;SDS011;18176;49.502;11.754;2023-07-31T13:18:03;5.47;;;3.60;;
21183;SDS011;18176;49.502;11.754;2023-07-31T13:22:03;4.53;;;2.72;;
21183;SDS011;18176;49.502;11.754;2023-07-31T13:26:04;6.28;;;3.10;;
21183;SDS011;18176;49.502;11.754;2023-07-31T13:30:06;5.57;;;3.30;;
21183;SDS011;18176;49.502;11.754;2023-07-31T13:34:12;5.57;;;3.40;;
21183;SDS011;18176;49.502;11.754;2023-07-31T13:38:15;6.32;;;3.60;;
21183;SDS011;18176;49.502;11.754;2023-07-31T13:42:16;6.85;;;3.50;;
21183;SDS011;18176;49.502;11.754;2023-07-31T13:46:16;4.88;;;3.45;;
21183;SDS011;18176;49.502;11.754;2023-07-31T13:50:19;4.80;;;3.47;;
21183;SDS011;18176;49.502;11.754;2023-07-31T13:54:21;5.05;;;3.40;;
21183;SDS011;18176;49.502;11.754;2023-07-31T13:58:26;4.82;;;3.20;;
21183;SDS011;18176;49.502;11.754;2023-07-31T14:02:27;6.50;;;3.50;;
21183;SDS011;18176;49.502;11.754;2023-07-31T14:06:29;5.40;;;3.22;;
21183;SDS011;18176;49.502;11.754;2023-07-31T14:10:30;5.57;;;3.75;;
21183;SDS011;18176;49.502;11.754;2023-07-31T14:14:32;5.93;;;3.67;;
21183;SDS011;18176;49.502;11.754;2023-07-31T14:18:33;5.82;;;3.80;;
21183;SDS011;18176;49.502;11.754;2023-07-31T14:22:36;6.50;;;3.60;;
21183;SDS011;18176;49.502;11.754;2023-07-31T14:26:37;6.93;;;3.38;;
21183;SDS011;18176;49.502;11.754;2023-07-31T14:30:38;6.18;;;3.60;;
21183;SDS011;18176;49.502;11.754;2023-07-31T14:34:38;5.57;;;3.70;;
21183;SDS011;18176;49.502;11.754;2023-07-31T14:38:41;5.13;;;3.70;;
21183;SDS011;18176;49.502;11.754;2023-07-31T14:42:42;6.57;;;3.97;;
21183;SDS011;18176;49.502;11.754;2023-07-31T14:46:43;5.28;;;3.70;;
21183;SDS011;18176;49.502;11.754;2023-07-31T14:50:43;5.70;;;3.80;;
21183;SDS011;18176;49.502;11.754;2023-07-31T14:54:46;4.95;;;3.35;;
21183;SDS011;18176;49.502;11.754;2023-07-31T14:58:47;9.27;;;3.78;;
21183;SDS011;18176;49.502;11.754;2023-07-31T15:02:47;7.25;;;3.67;;
21183;SDS011;18176;49.502;11.754;2023-07-31T15:06:47;7.00;;;3.58;;
21183;SDS011;18176;49.502;11.754;2023-07-31T15:10:52;5.22;;;3.47;;
21183;SDS011;18176;49.502;11.754;2023-07-31T15:14:55;6.20;;;3.67;;
21183;SDS011;18176;49.502;11.754;2023-07-31T15:18:55;6.63;;;3.50;;
21183;SDS011;18176;49.502;11.754;2023-07-31T15:22:56;7.75;;;3.60;;
21183;SDS011;18176;49.502;11.754;2023-07-31T15:26:59;6.22;;;4.00;;
21183;SDS011;18176;49.502;11.754;2023-07-31T15:30:59;5.72;;;3.40;;
21183;SDS011;18176;49.502;11.754;2023-07-31T15:35:00;7.35;;;3.60;;
21183;SDS011;18176;49.502;11.754;2023-07-31T15:39:00;5.40;;;3.70;;
21183;SDS011;18176;49.502;11.754;2023-07-31T15:43:03;7.80;;;3.58;;
21183;SDS011;18176;49.502;11.754;2023-07-31T15:47:04;6.30;;;3.80;;
21183;SDS011;18176;49.502;11.754;2023-07-31T15:51:04;6.55;;;3.50;;
21183;SDS011;18176;49.502;11.754;2023-07-31T15:55:05;5.35;;;3.40;;
21183;SDS011;18176;49.502;11.754;2023-07-31T15:59:09;11.98;;;3.50;;
21183;SDS011;18176;49.502;11.754;2023-07-31T16:03:09;4.75;;;3.20;;
21183;SDS011;18176;49.502;11.754;2023-07-31T16:07:10;5.93;;;3.00;;
21183;SDS011;18176;49.502;11.754;2023-07-31T16:11:11;7.85;;;3.50;;
21183;SDS011;18176;49.502;11.754;2023-07-31T16:15:14;7.65;;;3.47;;
21183;SDS011;18176;49.502;11.754;2023-07-31T16:19:15;5.03;;;3.10;;
21183;SDS011;18176;49.502;11.754;2023-07-31T16:23:16;6.25;;;3.50;;
21183;SDS011;18176;49.502;11.754;2023-07-31T16:27:16;4.85;;;3.03;;
21183;SDS011;18176;49.502;11.754;2023-07-31T16:31:23;5.60;;;3.17;;
21183;SDS011;18176;49.502;11.754;2023-07-31T16:35:30;4.78;;;2.88;;
21183;SDS011;18176;49.502;11.754;2023-07-31T16:39:30;5.03;;;3.42;;
21183;SDS011;18176;49.502;11.754;2023-07-31T16:43:32;7.05;;;3.40;;
21183;SDS011;18176;49.502;11.754;2023-07-31T16:47:35;5.50;;;3.25;;
21183;SDS011;18176;49.502;11.754;2023-07-31T16:51:36;6.85;;;3.65;;
21183;SDS011;18176;49.502;11.754;2023-07-31T16:55:37;4.97;;;3.28;;
21183;SDS011;18176;49.502;11.754;2023-07-31T16:59:37;5.15;;;3.53;;
21183;SDS011;18176;49.502;11.754;2023-07-31T17:03:40;7.05;;;3.35;;
21183;SDS011;18176;49.502;11.754;2023-07-31T17:07:41;4.55;;;3.00;;
21183;SDS011;18176;49.502;11.754;2023-07-31T17:11:41;4.93;;;3.00;;
21183;SDS011;18176;49.502;11.754;2023-07-31T17:15:41;4.10;;;3.00;;
21183;SDS011;18176;49.502;11.754;2023-07-31T17:19:44;5.60;;;3.50;;
21183;SDS011;18176;49.502;11.754;2023-07-31T17:23:45;7.28;;;3.50;;
21183;SDS011;18176;49.502;11.754;2023-07-31T17:27:45;5.53;;;3.42;;
21183;SDS011;18176;49.502;11.754;2023-07-31T17:31:49;6.90;;;3.42;;
21183;SDS011;18176;49.502;11.754;2023-07-31T17:35:52;7.43;;;3.30;;
21183;SDS011;18176;49.502;11.754;2023-07-31T17:39:53;4.90;;;3.10;;
21183;SDS011;18176;49.502;11.754;2023-07-31T17:43:53;6.75;;;3.20;;
21183;SDS011;18176;49.502;11.754;2023-07-31T17:47:53;4.95;;;3.03;;
21183;SDS011;18176;49.502;11.754;2023-07-31T17:51:56;4.65;;;3.00;;
21183;SDS011;18176;49.502;11.754;2023-07-31T17:55:57;6.57;;;3.40;;
21183;SDS011;18176;49.502;11.754;2023-07-31T17:59:58;6.45;;;3.10;;
21183;SDS011;18176;49.502;11.754;2023-07-31T18:04:02;4.90;;;2.95;;
21183;SDS011;18176;49.502;11.754;2023-07-31T18:08:05;6.22;;;3.10;;
21183;SDS011;18176;49.502;11.754;2023-07-31T18:12:06;4.85;;;3.00;;
21183;SDS011;18176;49.502;11.754;2023-07-31T18:16:08;5.93;;;2.90;;
21183;SDS011;18176;49.502;11.754;2023-07-31T18:20:08;6.78;;;3.08;;
21183;SDS011;18176;49.502;11.754;2023-07-31T18:24:15;6.13;;;2.92;;
21183;SDS011;18176;49.502;11.754;2023-07-31T18:28:15;5.15;;;2.72;;
21183;SDS011;18176;49.502;11.754;2023-07-31T18:32:16;6.60;;;2.90;;
21183;SDS011;18176;49.502;11.754;2023-07-31T18:36:16;6.53;;;2.80;;
21183;SDS011;18176;49.502;11.754;2023-07-31T18:40:19;5.20;;;2.85;;
21183;SDS011;18176;49.502;11.754;2023-07-31T18:44:19;5.38;;;2.83;;
21183;SDS011;18176;49.502;11.754;2023-07-31T18:48:22;7.45;;;2.90;;
21183;SDS011;18176;49.502;11.754;2023-07-31T18:52:22;7.05;;;3.35;;
21183;SDS011;18176;49.502;11.754;2023-07-31T18:56:25;5.50;;;3.08;;
21183;SDS011;18176;49.502;11.754;2023-07-31T19:00:26;5.38;;;2.88;;
21183;SDS011;18176;49.502;11.754;2023-07-31T19:04:26;5.32;;;3.30;;
21183;SDS011;18176;49.502;11.754;2023-07-31T19:08:26;6.35;;;3.20;;
21183;SDS011;18176;49.502;11.754;2023-07-31T19:12:29;7.00;;;3.10;;
21183;SDS011;18176;49.502;11.754;2023-07-31T19:16:30;6.22;;;3.00;;
21183;SDS011;18176;49.502;11.754;2023-07-31T19:20:31;3.75;;;3.03;;
21183;SDS011;18176;49.502;11.754;2023-07-31T19:24:31;5.03;;;3.13;;
21183;SDS011;18176;49.502;11.754;2023-07-31T19:28:35;5.55;;;3.00;;
21183;SDS011;18176;49.502;11.754;2023-07-31T19:32:39;5.93;;;2.95;;
21183;SDS011;18176;49.502;11.754;2023-07-31T19:36:48;8.23;;;3.17;;
21183;SDS011;18176;49.502;11.754;2023-07-31T19:40:51;4.93;;;2.95;;
21183;SDS011;18176;49.502;11.754;2023-07-31T19:44:54;8.00;;;3.13;;
21183;SDS011;18176;49.502;11.754;2023-07-31T19:48:55;6.00;;;2.90;;
21183;SDS011;18176;49.502;11.754;2023-07-31T19:52:56;4.60;;;3.10;;
21183;SDS011;18176;49.502;11.754;2023-07-31T19:56:57;8.45;;;3.42;;
21183;SDS011;18176;49.502;11.754;2023-07-31T20:01:00;7.05;;;3.28;;
21183;SDS011;18176;49.502;11.754;2023-07-31T20:05:04;5.18;;;2.80;;
21183;SDS011;18176;49.502;11.754;2023-07-31T20:09:06;6.70;;;3.08;;
21183;SDS011;18176;49.502;11.754;2023-07-31T20:13:10;7.35;;;3.30;;
21183;SDS011;18176;49.502;11.754;2023-07-31T20:17:14;5.93;;;3.33;;
21183;SDS011;18176;49.502;11.754;2023-07-31T20:21:14;6.47;;;3.00;;
21183;SDS011;18176;49.502;11.754;2023-07-31T20:25:15;4.97;;;3.38;;
21183;SDS011;18176;49.502;11.754;2023-07-31T20:29:16;5.75;;;3.05;;
21183;SDS011;18176;49.502;11.754;2023-07-31T20:33:19;7.90;;;3.58;;
21183;SDS011;18176;49.502;11.754;2023-07-31T20:37:20;5.05;;;3.30;;
21183;SDS011;18176;49.502;11.754;2023-07-31T20:41:22;6.35;;;3.25;;
21183;SDS011;18176;49.502;11.754;2023-07-31T20:45:24;6.93;;;3.40;;
21183;SDS011;18176;49.502;11.754;2023-07-31T20:49:31;6.70;;;3.42;;
21183;SDS011;18176;49.502;11.754;2023-07-31T20:53:31;6.50;;;3.25;;
21183;SDS011;18176;49.502;11.754;2023-07-31T20:57:32;7.55;;;3.22;;
21183;SDS011;18176;49.502;11.754;2023-07-31T21:01:33;5.32;;;3.30;;
21183;SDS011;18176;49.502;11.754;2023-07-31T21:05:36;6.70;;;3.30;;
21183;SDS011;18176;49.502;11.754;2023-07-31T21:09:37;9.02;;;3.60;;
21183;SDS011;18176;49.502;11.754;2023-07-31T21:13:40;7.63;;;3.55;;
21183;SDS011;18176;49.502;11.754;2023-07-31T21:17:44;8.07;;;3.35;;
21183;SDS011;18176;49.502;11.754;2023-07-31T21:21:48;5.95;;;3.45;;
21183;SDS011;18176;49.502;11.754;2023-07-31T21:25:48;7.55;;;3.28;;
21183;SDS011;18176;49.502;11.754;2023-07-31T21:29:49;6.53;;;3.83;;
21183;SDS011;18176;49.502;11.754;2023-07-31T21:33:50;5.43;;;3.33;;
21183;SDS011;18176;49.502;11.754;2023-07-31T21:37:54;7.53;;;3.65;;
21183;SDS011;18176;49.502;11.754;2023-07-31T21:42:02;6.82;;;3.30;;
21183;SDS011;18176;49.502;11.754;2023-07-31T21:46:09;8.13;;;3.78;;
21183;SDS011;18176;49.502;11.754;2023-07-31T21:50:16;5.85;;;3.53;;
21183;SDS011;18176;49.502;11.754;2023-07-31T21:54:20;6.72;;;3.80;;
21183;SDS011;18176;49.502;11.754;2023-07-31T21:58:21;7.53;;;3.97;;
21183;SDS011;18176;49.502;11.754;2023-07-31T22:02:21;8.57;;;4.32;;
21183;SDS011;18176;49.502;11.754;2023-07-31T22:06:22;7.15;;;3.95;;
21183;SDS011;18176;49.502;11.754;2023-07-31T22:10:25;8.05;;;3.65;;
21183;SDS011;18176;49.502;11.754;2023-07-31T22:14:26;6.78;;;3.85;;
21183;SDS011;18176;49.502;11.754;2023-07-31T22:18:27;7.93;;;3.83;;
21183;SDS011;18176;49.502;11.754;2023-07-31T22:22:27;6.90;;;3.88;;
21183;SDS011;18176;49.502;11.754;2023-07-31T22:26:30;6.78;;;4.05;;
21183;SDS011;18176;49.502;11.754;2023-07-31T22:30:31;6.65;;;3.95;;
21183;SDS011;18176;49.502;11.754;2023-07-31T22:34:32;7.15;;;4.07;;
21183;SDS011;18176;49.502;11.754;2023-07-31T22:38:33;7.70;;;4.68;;
21183;SDS011;18176;49.502;11.754;2023-07-31T22:42:36;8.20;;;4.53;;
21183;SDS011;18176;49.502;11.754;2023-07-31T22:46:38;8.52;;;4.40;;
21183;SDS011;18176;49.502;11.754;2023-07-31T22:50:39;8.77;;;4.43;;
21183;SDS011;18176;49.502;11.754;2023-07-31T22:54:40;9.77;;;4.70;;
21183;SDS011;18176;49.502;11.754;2023-07-31T22:58:43;12.18;;;4.40;;
21183;SDS011;18176;49.502;11.754;2023-07-31T23:02:45;8.93;;;4.65;;
21183;SDS011;18176;49.502;11.754;2023-07-31T23:06:46;6.93;;;4.20;;
21183;SDS011;18176;49.502;11.754;2023-07-31T23:10:47;7.50;;;4.22;;
21183;SDS011;18176;49.502;11.754;2023-07-31T23:14:51;10.93;;;5.10;;
21183;SDS011;18176;49.502;11.754;2023-07-31T23:18:52;9.43;;;4.75;;
21183;SDS011;18176;49.502;11.754;2023-07-31T23:22:58;8.57;;;4.70;;
21183;SDS011;18176;49.502;11.754;2023-07-31T23:27:13;10.05;;;5.00;;
21183;SDS011;18176;49.502;11.754;2023-07-31T23:31:35;7.97;;;4.82;;
21183;SDS011;18176;49.502;11.754;2023-07-31T23:35:46;8.50;;;4.32;;
21183;SDS011;18176;49.502;11.754;2023-07-31T23:39:46;9.90;;;4.78;;
21183;SDS011;18176;49.502;11.754;2023-07-31T23:43:47;8.93;;;4.97;;
21183;SDS011;18176;49.502;11.754;2023-07-31T23:47:49;8.57;;;4.80;;
21183;SDS011;18176;49.502;11.754;2023-07-31T23:51:52;11.25;;;4.93;;
21183;SDS011;18176;49.502;11.754;2023-07-31T23:55:53;8.82;;;4.53;;